createdAt,value
2019-04-04T00:00:15.985Z,14.93
2019-04-04T00:02:44.524Z,14.43
2019-04-04T00:05:14.012Z,14.87
2019-04-04T00:07:43.306Z,17.98
2019-04-04T00:10:13.439Z,14.60
2019-04-04T00:12:42.789Z,14.93
2019-04-04T00:15:12.965Z,15.83
2019-04-04T00:17:43.157Z,15.60
2019-04-04T00:20:12.591Z,15.13
2019-04-04T00:22:41.911Z,16.50
2019-04-04T00:25:11.283Z,15.17
2019-04-04T00:27:42.051Z,14.30
2019-04-04T00:30:11.703Z,16.20
2019-04-04T00:32:40.962Z,16.97
2019-04-04T00:35:10.274Z,17.17
2019-04-04T00:37:41.057Z,15.93
2019-04-04T00:40:11.773Z,18.00
2019-04-04T00:42:41.009Z,15.18
2019-04-04T00:45:12.110Z,16.85
2019-04-04T00:47:41.420Z,16.60
2019-04-04T00:50:11.127Z,16.50
2019-04-04T00:52:41.350Z,18.95
2019-04-04T00:55:11.058Z,17.40
2019-04-04T00:57:40.561Z,16.93
2019-04-04T01:00:10.061Z,19.25
2019-04-04T01:02:39.406Z,17.37
2019-04-04T01:05:08.907Z,17.27
2019-04-04T01:07:38.230Z,15.90
2019-04-04T01:10:08.235Z,22.03
2019-04-04T01:12:37.541Z,18.23
2019-04-04T01:15:08.024Z,18.10
2019-04-04T01:17:37.304Z,16.65
2019-04-04T01:20:08.581Z,18.15
2019-04-04T01:22:37.947Z,18.20
2019-04-04T01:25:09.280Z,19.20
2019-04-04T01:27:38.586Z,18.05
2019-04-04T01:30:11.757Z,18.80
2019-04-04T01:32:39.956Z,19.35
2019-04-04T01:35:09.591Z,17.13
2019-04-04T01:37:38.853Z,15.83
2019-04-04T01:40:08.498Z,18.03
2019-04-04T01:42:38.687Z,18.07
2019-04-04T01:45:08.644Z,17.50
2019-04-04T01:47:37.935Z,17.90
2019-04-04T01:50:07.262Z,17.40
2019-04-04T01:52:36.495Z,16.20
2019-04-04T01:55:06.272Z,17.20
2019-04-04T01:57:38.911Z,17.57
2019-04-04T02:00:10.397Z,16.67
2019-04-04T02:02:39.728Z,18.45
2019-04-04T02:05:12.051Z,19.63
2019-04-04T02:07:41.318Z,22.75
2019-04-04T02:10:10.832Z,16.80
2019-04-04T02:12:40.225Z,17.85
2019-04-04T02:15:09.664Z,17.35
2019-04-04T02:17:39.166Z,18.00
2019-04-04T02:20:08.853Z,17.82
2019-04-04T02:22:38.097Z,15.40
2019-04-04T02:25:09.903Z,16.93
2019-04-04T02:27:39.085Z,15.72
2019-04-04T02:30:14.611Z,17.82
2019-04-04T02:32:43.525Z,16.32
2019-04-04T02:35:12.956Z,17.80
2019-04-04T02:37:42.297Z,18.47
2019-04-04T02:40:12.385Z,19.23
2019-04-04T02:42:41.702Z,17.15
2019-04-04T02:45:11.035Z,17.50
2019-04-04T02:47:40.207Z,17.10
2019-04-04T02:50:09.769Z,16.37
2019-04-04T02:52:39.121Z,19.35
2019-04-04T02:55:08.496Z,19.17
2019-04-04T02:57:41.067Z,19.73
2019-04-04T03:00:09.343Z,17.27
2019-04-04T03:02:38.740Z,18.00
2019-04-04T03:05:08.021Z,17.53
2019-04-04T03:07:37.319Z,18.63
2019-04-04T03:10:07.505Z,20.13
2019-04-04T03:12:36.984Z,16.87
2019-04-04T03:15:08.981Z,18.85
2019-04-04T03:17:37.569Z,17.57
2019-04-04T03:20:06.927Z,16.95
2019-04-04T03:22:36.216Z,19.80
2019-04-04T03:25:05.486Z,18.83
2019-04-04T03:27:34.956Z,20.88
2019-04-04T03:30:04.804Z,20.12
2019-04-04T03:32:33.982Z,17.92
2019-04-04T03:35:03.343Z,19.30
2019-04-04T03:37:32.636Z,19.90
2019-04-04T03:40:01.834Z,16.37
2019-04-04T03:42:31.065Z,19.92
2019-04-04T03:45:00.285Z,18.37
2019-04-04T03:47:29.400Z,21.62
2019-04-04T03:49:58.614Z,17.75
2019-04-04T03:52:27.906Z,22.65
2019-04-04T03:54:57.051Z,21.27
2019-04-04T03:57:26.503Z,21.30
2019-04-04T03:59:56.039Z,19.82
2019-04-04T04:02:25.282Z,19.90
2019-04-04T04:04:54.686Z,17.93
2019-04-04T04:07:23.810Z,18.02
2019-04-04T04:09:52.977Z,20.12
2019-04-04T04:12:22.130Z,20.20
2019-04-04T04:14:53.771Z,21.10
2019-04-04T04:17:22.251Z,19.50
2019-04-04T04:19:51.490Z,21.27
2019-04-04T04:22:20.893Z,20.32
2019-04-04T04:24:50.375Z,21.87
2019-04-04T04:27:19.766Z,18.40
2019-04-04T04:29:49.054Z,20.70
2019-04-04T04:32:21.497Z,21.73
2019-04-04T04:34:49.448Z,20.65
2019-04-04T04:37:20.381Z,19.50
2019-04-04T04:39:49.914Z,18.37
2019-04-04T04:42:21.288Z,20.33
2019-04-04T04:44:50.646Z,20.32
2019-04-04T04:47:22.775Z,20.00
2019-04-04T04:49:51.249Z,20.77
2019-04-04T04:52:20.801Z,20.25
2019-04-04T04:54:50.065Z,17.65
2019-04-04T04:57:29.341Z,18.27
2019-04-04T04:59:50.655Z,21.23
2019-04-04T05:02:22.139Z,20.43
2019-04-04T05:04:50.889Z,19.00
2019-04-04T05:07:20.243Z,20.03
2019-04-04T05:09:49.592Z,18.73
2019-04-04T05:12:21.713Z,23.00
2019-04-04T05:14:49.887Z,20.05
2019-04-04T05:17:19.077Z,20.90
2019-04-04T05:19:50.184Z,20.72
2019-04-04T05:22:19.427Z,19.52
2019-04-04T05:25:06.834Z,19.53
2019-04-04T05:27:19.608Z,19.95
2019-04-04T05:29:48.731Z,19.52
2019-04-04T05:32:21.027Z,18.45
2019-04-04T05:34:49.203Z,19.77
2019-04-04T05:37:18.995Z,19.70
2019-04-04T05:39:51.156Z,17.82
2019-04-04T05:42:19.346Z,18.27
2019-04-04T05:44:51.036Z,19.63
2019-04-04T05:47:22.894Z,19.57
2019-04-04T05:49:50.990Z,20.32
2019-04-04T05:52:20.401Z,19.03
2019-04-04T05:54:49.532Z,20.33
2019-04-04T05:57:20.136Z,21.90
2019-04-04T05:59:50.081Z,19.92
2019-04-04T06:02:19.784Z,21.63
2019-04-04T06:04:51.327Z,19.35
2019-04-04T06:07:20.509Z,18.15
2019-04-04T06:09:49.767Z,19.83
2019-04-04T06:12:19.041Z,19.45
2019-04-04T06:14:48.277Z,20.00
2019-04-04T06:17:17.534Z,18.50
2019-04-04T06:19:46.771Z,18.80
2019-04-04T06:22:15.924Z,20.90
2019-04-04T06:24:45.923Z,19.25
2019-04-04T06:27:17.222Z,19.45
2019-04-04T06:29:47.900Z,19.67
2019-04-04T06:32:17.759Z,17.75
2019-04-04T06:34:47.136Z,16.87
2019-04-04T06:37:18.084Z,18.10
2019-04-04T06:39:47.421Z,16.55
2019-04-04T06:42:16.547Z,19.10
2019-04-04T06:44:45.637Z,19.52
2019-04-04T06:47:16.500Z,19.35
2019-04-04T06:49:45.897Z,17.10
2019-04-04T06:52:16.335Z,17.75
2019-04-04T06:54:46.624Z,15.85
2019-04-04T06:57:15.938Z,19.20
2019-04-04T06:59:45.158Z,18.17
2019-04-04T07:02:14.469Z,18.62
2019-04-04T07:04:43.880Z,18.40
2019-04-04T07:07:13.164Z,16.60
2019-04-04T07:09:42.576Z,17.93
2019-04-04T07:12:22.310Z,18.30
2019-04-04T07:14:46.327Z,16.97
2019-04-04T07:17:16.230Z,17.02
2019-04-04T07:19:46.294Z,19.12
2019-04-04T07:22:15.439Z,16.77
2019-04-04T07:24:44.670Z,17.02
2019-04-04T07:27:14.195Z,16.75
2019-04-04T07:29:44.759Z,17.70
2019-04-04T07:32:13.946Z,16.33
2019-04-04T07:34:45.054Z,13.50
2019-04-04T07:37:14.077Z,15.43
2019-04-04T07:39:43.223Z,15.08
2019-04-04T07:42:15.573Z,15.20
2019-04-04T07:44:43.515Z,14.23
2019-04-04T07:47:15.883Z,16.00
2019-04-04T07:49:43.842Z,14.70
2019-04-04T07:52:13.029Z,16.40
2019-04-04T07:54:42.290Z,12.88
2019-04-04T07:57:11.552Z,15.08
2019-04-04T07:59:44.022Z,13.83
2019-04-04T08:02:13.204Z,16.85
2019-04-04T08:04:42.475Z,15.25
2019-04-04T08:07:11.678Z,16.50
2019-04-04T08:09:40.775Z,14.38
2019-04-04T08:12:09.942Z,14.50
2019-04-04T08:14:39.607Z,13.48
2019-04-04T08:17:08.607Z,13.58
2019-04-04T08:19:38.024Z,14.03
2019-04-04T08:22:07.206Z,14.10
2019-04-04T08:24:36.306Z,13.08
2019-04-04T08:27:05.611Z,13.18
2019-04-04T08:29:34.861Z,12.77
2019-04-04T08:32:03.999Z,13.47
2019-04-04T08:34:36.232Z,14.05
2019-04-04T08:37:04.235Z,12.58
2019-04-04T08:39:33.419Z,13.32
2019-04-04T08:42:02.808Z,12.15
2019-04-04T08:44:32.176Z,12.90
2019-04-04T08:47:01.538Z,11.95
2019-04-04T08:49:30.596Z,12.03
2019-04-04T08:52:00.401Z,11.18
2019-04-04T08:54:29.441Z,13.28
2019-04-04T08:56:58.707Z,11.90
2019-04-04T08:59:28.278Z,13.83
2019-04-04T09:01:57.461Z,13.80
2019-04-04T09:04:26.484Z,11.88
2019-04-04T09:06:55.713Z,11.95
2019-04-04T09:09:24.911Z,12.03
2019-04-04T09:11:54.137Z,11.28
2019-04-04T09:14:23.330Z,12.23
2019-04-04T09:16:52.538Z,11.10
2019-04-04T09:19:21.933Z,12.00
2019-04-04T09:21:51.150Z,10.82
2019-04-04T09:24:20.110Z,11.18
2019-04-04T09:26:49.461Z,10.95
2019-04-04T09:29:18.794Z,10.40
2019-04-04T09:31:47.967Z,12.28
2019-04-04T09:34:17.083Z,10.60
2019-04-04T09:36:46.303Z,11.90
2019-04-04T09:39:16.783Z,9.63
2019-04-04T09:41:46.440Z,10.10
2019-04-04T09:44:15.552Z,10.32
2019-04-04T09:46:44.809Z,10.43
2019-04-04T09:49:14.098Z,11.27
2019-04-04T09:51:43.416Z,9.73
2019-04-04T09:54:13.886Z,10.80
2019-04-04T09:56:42.986Z,9.98
2019-04-04T09:59:12.108Z,9.83
2019-04-04T10:01:44.421Z,9.13
2019-04-04T10:04:13.705Z,10.82
2019-04-04T10:06:42.999Z,10.82
2019-04-04T10:09:15.819Z,10.43
2019-04-04T10:11:43.421Z,10.80
2019-04-04T10:14:13.075Z,10.38
2019-04-04T10:16:42.421Z,10.28
2019-04-04T10:19:11.800Z,9.70
2019-04-04T10:21:40.859Z,10.93
2019-04-04T10:24:10.102Z,11.03
2019-04-04T10:26:39.830Z,10.03
2019-04-04T10:29:09.566Z,10.55
2019-04-04T10:31:38.833Z,10.08
2019-04-04T10:34:08.199Z,10.57
2019-04-04T10:36:37.428Z,8.85
2019-04-04T10:39:12.087Z,10.48
2019-04-04T10:41:42.028Z,8.78
2019-04-04T10:44:11.367Z,8.38
2019-04-04T10:46:40.690Z,8.10
2019-04-04T10:49:10.006Z,8.25
2019-04-04T10:51:39.281Z,10.37
2019-04-04T10:54:08.500Z,9.53
2019-04-04T10:56:37.678Z,9.90
2019-04-04T10:59:06.961Z,9.43
2019-04-04T11:01:36.185Z,8.00
2019-04-04T11:04:05.461Z,9.70
2019-04-04T11:06:34.814Z,7.63
2019-04-04T11:09:05.640Z,8.25
2019-04-04T11:11:34.921Z,8.48
2019-04-04T11:14:04.251Z,9.08
2019-04-04T11:16:33.535Z,7.17
2019-04-04T11:19:05.665Z,8.40
2019-04-04T11:21:34.928Z,9.05
2019-04-04T11:24:04.124Z,8.78
2019-04-04T11:26:33.381Z,8.70
2019-04-04T11:29:05.047Z,9.73
2019-04-04T11:31:34.276Z,8.00
2019-04-04T11:34:03.488Z,8.53
2019-04-04T11:36:32.640Z,8.07
2019-04-04T11:39:02.029Z,6.77
2019-04-04T11:41:31.136Z,8.08
2019-04-04T11:44:00.248Z,8.53
2019-04-04T11:46:29.378Z,7.87
2019-04-04T11:48:58.433Z,7.57
2019-04-04T11:51:27.728Z,7.20
2019-04-04T11:53:57.215Z,6.97
2019-04-04T11:56:26.472Z,7.28
2019-04-04T11:58:55.691Z,7.90
2019-04-04T12:01:25.991Z,7.33
2019-04-04T12:03:55.255Z,7.70
2019-04-04T12:06:24.631Z,7.47
2019-04-04T12:08:53.918Z,6.72
2019-04-04T12:11:23.484Z,7.10
2019-04-04T12:13:52.629Z,8.10
2019-04-04T12:16:21.698Z,7.77
2019-04-04T12:18:53.066Z,8.38
2019-04-04T12:21:22.738Z,6.20
2019-04-04T12:23:52.037Z,6.58
2019-04-04T12:26:22.819Z,7.97
2019-04-04T12:28:52.151Z,8.35
2019-04-04T12:31:21.436Z,6.53
2019-04-04T12:33:50.811Z,9.30
2019-04-04T12:36:24.747Z,7.85
2019-04-04T12:38:51.180Z,7.60
2019-04-04T12:41:20.744Z,8.58
2019-04-04T12:43:50.084Z,8.95
2019-04-04T12:46:19.348Z,8.00
2019-04-04T12:48:48.717Z,7.55
2019-04-04T12:51:18.134Z,8.25
2019-04-04T12:53:50.024Z,8.43
2019-04-04T12:56:19.527Z,7.20
2019-04-04T12:58:48.647Z,7.17
2019-04-04T13:01:17.946Z,6.77
2019-04-04T13:03:47.210Z,7.95
2019-04-04T13:06:16.547Z,6.50
2019-04-04T13:08:45.803Z,9.08
2019-04-04T13:11:15.278Z,8.45
2019-04-04T13:13:44.563Z,8.20
2019-04-04T13:16:13.825Z,7.45
2019-04-04T13:18:45.536Z,8.58
2019-04-04T13:21:14.874Z,8.63
2019-04-04T13:23:44.008Z,9.38
2019-04-04T13:26:13.248Z,7.93
2019-04-04T13:28:42.528Z,8.08
2019-04-04T13:31:12.039Z,8.78
2019-04-04T13:33:41.387Z,7.95
2019-04-04T13:36:10.758Z,8.83
2019-04-04T13:38:39.891Z,7.45
2019-04-04T13:41:21.036Z,7.42
2019-04-04T13:43:41.956Z,7.62
2019-04-04T13:46:11.293Z,6.83
2019-04-04T13:48:43.105Z,7.72
2019-04-04T13:51:12.095Z,6.60
2019-04-04T13:53:42.201Z,7.17
2019-04-04T13:56:13.995Z,6.75
2019-04-04T13:58:43.186Z,5.92
2019-04-04T14:01:12.471Z,7.30
2019-04-04T14:03:42.307Z,7.10
2019-04-04T14:08:40.146Z,6.65
2019-04-04T14:11:09.543Z,6.72
2019-04-04T14:13:38.792Z,7.65
2019-04-04T14:16:08.131Z,5.35
2019-04-04T14:18:39.731Z,7.40
2019-04-04T14:21:08.354Z,6.17
2019-04-04T14:23:38.023Z,7.15
2019-04-04T14:26:07.326Z,6.35
2019-04-04T14:28:36.779Z,7.55
2019-04-04T14:31:06.692Z,6.45
2019-04-04T14:33:35.846Z,6.40
2019-04-04T14:36:05.238Z,7.47
2019-04-04T14:38:34.444Z,6.62
2019-04-04T14:41:11.109Z,6.67
2019-04-04T14:43:34.588Z,7.08
2019-04-04T14:46:04.030Z,7.10
2019-04-04T14:48:33.290Z,7.03
2019-04-04T14:51:02.380Z,6.28
2019-04-04T14:53:33.251Z,6.73
2019-04-04T14:56:02.782Z,6.58
2019-04-04T14:58:31.961Z,6.22
2019-04-04T15:01:01.305Z,6.47
2019-04-04T15:03:30.610Z,5.72
2019-04-04T15:05:59.949Z,6.67
2019-04-04T15:08:29.268Z,6.55
2019-04-04T15:10:58.499Z,6.53
2019-04-04T15:13:27.881Z,6.72
2019-04-04T15:16:17.077Z,6.62
2019-04-04T15:18:46.352Z,6.60
2019-04-04T15:21:15.846Z,6.17
2019-04-04T15:23:46.365Z,6.85
2019-04-04T15:26:15.745Z,6.40
2019-04-04T15:28:45.045Z,6.15
2019-04-04T15:31:14.418Z,6.75
2019-04-04T15:33:43.872Z,5.87
2019-04-04T15:36:13.015Z,5.42
2019-04-04T15:38:42.218Z,6.70
2019-04-04T15:41:11.619Z,5.58
2019-04-04T15:43:40.714Z,5.70
2019-04-04T15:46:11.505Z,5.80
2019-04-04T15:48:40.951Z,5.90
2019-04-04T15:51:10.137Z,6.03
2019-04-04T15:53:39.402Z,6.70
2019-04-04T15:56:08.692Z,5.33
2019-04-04T15:58:37.955Z,6.83
2019-04-04T16:01:07.297Z,6.62
2019-04-04T16:03:36.784Z,6.25
2019-04-04T16:06:06.111Z,5.70
2019-04-04T16:08:37.461Z,5.25
2019-04-04T16:11:07.192Z,5.12
2019-04-04T16:13:36.373Z,5.50
2019-04-04T16:16:05.731Z,5.77
2019-04-04T16:18:35.143Z,6.28
2019-04-04T16:21:04.397Z,5.50
2019-04-04T16:23:33.621Z,6.35
2019-04-04T16:26:02.905Z,6.43
2019-04-04T16:28:31.907Z,12.40
2019-04-04T16:31:01.307Z,6.15
2019-04-04T16:33:30.658Z,6.12
2019-04-04T16:36:00.005Z,6.53
2019-04-04T16:38:29.450Z,5.55
2019-04-04T16:41:00.455Z,5.62
2019-04-04T16:43:29.971Z,5.83
2019-04-04T16:45:59.550Z,6.05
2019-04-04T16:48:28.777Z,6.17
2019-04-04T16:50:57.972Z,4.93
2019-04-04T16:53:29.844Z,6.00
2019-04-04T16:55:58.398Z,6.33
2019-04-04T16:58:27.828Z,5.45
2019-04-04T17:00:57.315Z,6.03
2019-04-04T17:03:26.522Z,6.97
2019-04-04T17:05:56.313Z,7.75
2019-04-04T17:08:25.728Z,8.40
2019-04-04T17:10:56.565Z,7.03
2019-04-04T17:13:25.840Z,7.08
2019-04-04T17:15:55.151Z,6.37
2019-04-04T17:18:24.424Z,11.45
2019-04-04T17:20:53.714Z,8.05
2019-04-04T17:23:23.028Z,6.15
2019-04-04T17:25:52.419Z,7.62
2019-04-04T17:28:21.632Z,7.17
2019-04-04T17:30:51.103Z,6.42
2019-04-04T17:33:20.841Z,6.78
2019-04-04T17:35:50.960Z,6.40
2019-04-04T17:38:20.412Z,6.28
2019-04-04T17:40:49.764Z,6.60
2019-04-04T17:43:19.032Z,5.75
2019-04-04T17:45:48.468Z,6.80
2019-04-04T17:48:17.791Z,7.37
2019-04-04T17:50:47.134Z,12.55
2019-04-04T17:53:16.938Z,10.68
2019-04-04T17:55:47.219Z,5.87
2019-04-04T17:58:16.290Z,6.83
2019-04-04T18:00:48.524Z,6.30
2019-04-04T18:03:17.577Z,9.15
2019-04-04T18:05:46.780Z,7.75
2019-04-04T18:08:15.823Z,8.07
2019-04-04T18:10:45.404Z,6.62
2019-04-04T18:13:14.639Z,7.20
2019-04-04T18:15:44.051Z,8.70
2019-04-04T18:18:16.095Z,7.15
2019-04-04T18:20:45.487Z,7.85
2019-04-04T18:23:15.261Z,10.15
2019-04-04T18:25:45.479Z,7.75
2019-04-04T18:28:14.851Z,7.37
2019-04-04T18:30:44.097Z,7.72
2019-04-04T18:33:36.701Z,8.50
2019-04-04T18:36:08.757Z,8.00
2019-04-04T18:38:38.238Z,8.90
2019-04-04T18:41:07.639Z,9.05
2019-04-04T18:43:37.482Z,12.18
2019-04-04T18:46:06.880Z,10.32
2019-04-04T18:48:36.260Z,8.10
2019-04-04T18:51:05.851Z,9.00
2019-04-04T18:53:35.227Z,8.60
2019-04-04T18:56:05.534Z,8.20
2019-04-04T18:58:34.771Z,7.47
2019-04-04T19:01:04.344Z,8.90
2019-04-04T19:03:33.524Z,8.70
2019-04-04T19:06:02.779Z,7.27
2019-04-04T19:08:32.029Z,5.97
2019-04-04T19:11:01.134Z,8.27
2019-04-04T19:13:38.517Z,7.83
2019-04-04T19:16:02.635Z,8.83
2019-04-04T19:18:31.939Z,7.95
2019-04-04T19:21:01.348Z,8.28
2019-04-04T19:23:30.607Z,8.33
2019-04-04T19:25:59.865Z,7.70
2019-04-04T19:28:29.036Z,10.50
2019-04-04T19:31:01.297Z,8.00
2019-04-04T19:33:30.542Z,7.12
2019-04-04T19:35:59.714Z,8.23
2019-04-04T19:38:29.041Z,7.83
2019-04-04T19:40:58.330Z,7.10
2019-04-04T19:43:27.642Z,9.20
2019-04-04T19:45:57.099Z,9.80
2019-04-04T19:48:26.400Z,10.48
2019-04-04T19:50:55.730Z,8.83
2019-04-04T19:53:24.992Z,9.43
2019-04-04T19:55:54.602Z,9.00
2019-04-04T19:58:23.851Z,7.62
2019-04-04T20:00:53.920Z,8.30
2019-04-04T20:05:51.674Z,11.57
2019-04-04T20:08:21.095Z,6.95
2019-04-04T20:10:50.428Z,8.23
2019-04-04T20:13:30.335Z,7.97
2019-04-04T20:15:51.075Z,7.80
2019-04-04T20:18:20.797Z,7.30
2019-04-04T20:20:50.183Z,8.35
2019-04-04T20:23:19.540Z,7.83
2019-04-04T20:25:48.701Z,7.85
2019-04-04T20:28:18.025Z,8.20
2019-04-04T20:30:47.493Z,8.55
2019-04-04T20:33:16.884Z,7.97
2019-04-04T20:35:46.480Z,8.43
2019-04-04T20:38:15.871Z,9.45
2019-04-04T20:40:45.310Z,8.30
2019-04-04T20:43:14.595Z,9.38
2019-04-04T20:45:43.956Z,9.07
2019-04-04T20:48:13.325Z,9.38
2019-04-04T20:50:42.647Z,8.80
2019-04-04T20:53:12.000Z,8.77
2019-04-04T20:55:41.317Z,8.63
2019-04-04T20:58:10.699Z,10.23
2019-04-04T21:00:39.998Z,10.48
2019-04-04T21:03:09.483Z,10.00
2019-04-04T21:05:38.825Z,11.25
2019-04-04T21:08:08.170Z,10.23
2019-04-04T21:10:37.641Z,10.23
2019-04-04T21:13:06.831Z,11.15
2019-04-04T21:15:36.360Z,9.65
2019-04-04T21:18:07.653Z,8.85
2019-04-04T21:20:37.198Z,10.18
2019-04-04T21:23:06.716Z,10.70
2019-04-04T21:25:36.135Z,10.75
2019-04-04T21:28:05.392Z,10.85
2019-04-04T21:30:34.858Z,10.93
2019-04-04T21:33:04.515Z,11.63
2019-04-04T21:35:33.943Z,10.85
2019-04-04T21:38:03.153Z,11.40
2019-04-04T21:40:32.436Z,9.30
2019-04-04T21:43:01.749Z,9.10
2019-04-04T21:45:33.218Z,12.47
2019-04-04T21:48:02.693Z,11.97
2019-04-04T21:50:32.226Z,11.38
2019-04-04T21:53:01.593Z,12.40
2019-04-04T21:55:30.984Z,11.70
2019-04-04T21:58:00.448Z,11.40
2019-04-04T22:00:37.113Z,11.25
2019-04-04T22:03:06.780Z,10.70
2019-04-04T22:05:36.077Z,10.43
2019-04-04T22:08:05.581Z,10.80
2019-04-04T22:10:35.010Z,12.40
2019-04-04T22:13:04.401Z,11.35
2019-04-04T22:15:33.842Z,10.07
2019-04-04T22:18:03.301Z,13.55
2019-04-04T22:20:32.574Z,11.88
2019-04-04T22:23:01.741Z,11.13
2019-04-04T22:25:31.302Z,12.07
2019-04-04T22:28:00.577Z,10.78
2019-04-04T22:30:29.860Z,13.30
2019-04-04T22:33:01.659Z,11.87
2019-04-04T22:35:30.221Z,13.22
2019-04-04T22:37:59.596Z,11.10
2019-04-04T22:40:28.971Z,12.65
2019-04-04T22:42:58.658Z,11.78
2019-04-04T22:45:27.901Z,14.47
2019-04-04T22:47:57.201Z,12.37
2019-04-04T22:50:26.460Z,13.73
2019-04-04T22:52:55.912Z,13.07
2019-04-04T22:55:26.697Z,11.53
2019-04-04T22:57:56.467Z,11.45
2019-04-04T23:00:25.912Z,12.37
2019-04-04T23:02:55.688Z,11.60
2019-04-04T23:05:24.935Z,12.10
2019-04-04T23:07:54.286Z,12.30
2019-04-04T23:10:23.736Z,13.37
2019-04-04T23:12:53.311Z,12.93
2019-04-04T23:15:22.688Z,11.80
2019-04-04T23:17:52.038Z,14.63
2019-04-04T23:20:21.416Z,11.37
2019-04-04T23:22:53.122Z,15.38
2019-04-04T23:25:21.713Z,13.35
2019-04-04T23:27:51.004Z,13.00
2019-04-04T23:30:23.360Z,14.43
2019-04-04T23:32:52.753Z,10.98
2019-04-04T23:35:22.031Z,12.03
2019-04-04T23:37:51.628Z,11.60
2019-04-04T23:40:20.940Z,12.10
2019-04-04T23:42:50.426Z,13.08
2019-04-04T23:45:19.803Z,13.18
2019-04-04T23:47:49.032Z,12.58
2019-04-04T23:50:18.383Z,13.07
2019-04-04T23:52:47.675Z,12.13
2019-04-04T23:55:16.952Z,11.97
2019-04-04T23:57:46.338Z,14.17
